Cedar Grove, California
Current Conditions -  °F | °C
As of 9:55 AM on Wednesday 28 Jan 2015 (Local Time) from KPVF Reporting Station
Clear Clear  
Wind Chill: 55°   Ceiling: Unl
Heat Index: 55°   Visibility: 10mi
Dew Point: 32°   Wind: 5mph
Humidity: 41%   Direction: 210°SSW
Pressure: 30.25"   Gusts: NA
Location:  38.7573°N, 120.677°W
Report Text: KPVF 281755Z AUTO 21004KT 10SM CLR 13/00 A3025 RMK AO1
Loading
Personal Weather Stations






























Interactive Weather Map New forecast layout! Learn more

10-Day Weather Forecast

Advertisements
Track Severe Weather on mobile